Time;durP1;ratioP1;P1;durP2;ratioP2;P2;SDS_P1;SDS_P2;PMS_P1;PMS_P2;Temp;Humidity;BMP_temperature;BMP_pressure;BME280_temperature;BME280_humidity;BME280_pressure;Samples;Min_cycle;Max_cycle;Signal;HPM_P1;HPM_P2
2024/01/25 00:00:19;;;;;;;20.88;10.98;;;8.90;99.90;;;;;;6207996;23;20005;-63
2024/01/25 00:02:45;;;;;;;28.85;11.02;;;9.00;99.90;;;;;;6207596;23;20532;-62
2024/01/25 00:05:11;;;;;;;23.53;10.47;;;9.00;99.90;;;;;;6256563;22;20005;-63
2024/01/25 00:07:48;;;;;;;21.63;11.10;;;9.10;99.90;;;;;;6207435;23;20007;-62
2024/01/25 00:10:17;;;;;;;18.23;8.65;;;9.10;99.90;;;;;;6207069;23;20007;-64
2024/01/25 00:12:43;;;;;;;17.88;9.02;;;9.00;99.90;;;;;;6253711;22;20055;-64
2024/01/25 00:15:10;;;;;;;16.75;8.60;;;9.00;99.90;;;;;;6205221;23;20012;-63
2024/01/25 00:17:36;;;;;;;19.75;8.93;;;8.90;99.90;;;;;;6206730;23;20001;-63
2024/01/25 00:20:02;;;;;;;17.38;8.60;;;8.80;99.90;;;;;;6207271;23;20009;-64
2024/01/25 00:22:28;;;;;;;;;;;8.80;99.90;;;;;;6207284;23;20011;-63
2024/01/25 00:24:53;;;;;;;16.40;7.85;;;8.80;99.90;;;;;;6207052;23;19912;-66
2024/01/25 00:27:19;;;;;;;15.27;9.10;;;8.80;99.90;;;;;;6207629;23;20433;-66
2024/01/25 00:29:44;;;;;;;14.77;8.30;;;8.80;99.90;;;;;;6206978;23;20084;-65
2024/01/25 00:32:10;;;;;;;19.47;9.13;;;8.90;99.90;;;;;;6207812;23;20009;-63
2024/01/25 00:34:36;;;;;;;17.97;8.63;;;8.90;99.90;;;;;;6206496;23;20453;-64
2024/01/25 00:37:02;;;;;;;11.97;7.33;;;8.90;99.90;;;;;;6206903;23;20337;-63
2024/01/25 00:39:28;;;;;;;14.52;8.27;;;8.90;99.90;;;;;;6206719;23;20008;-68
2024/01/25 00:42:03;;;;;;;19.40;8.27;;;8.90;99.90;;;;;;6207652;23;20059;-64
2024/01/25 00:44:29;;;;;;;18.77;10.02;;;8.90;99.90;;;;;;6207171;23;20112;-63
2024/01/25 00:46:55;;;;;;;20.20;9.75;;;8.90;99.90;;;;;;6206360;23;20533;-63
2024/01/25 00:49:21;;;;;;;20.88;8.57;;;8.90;99.90;;;;;;6205928;23;20015;-63
2024/01/25 00:51:47;;;;;;;22.02;10.10;;;9.00;99.90;;;;;;6206936;23;20009;-64
2024/01/25 00:54:14;;;;;;;24.73;9.07;;;8.90;99.90;;;;;;6206804;23;20015;-64
2024/01/25 00:56:40;;;;;;;;;;;8.90;99.90;;;;;;6207854;23;20083;-66
2024/01/25 00:59:06;;;;;;;20.42;8.48;;;9.00;99.90;;;;;;6207251;23;20005;-63
2024/01/25 01:01:32;;;;;;;19.05;7.43;;;9.00;99.90;;;;;;6207379;23;20015;-64
2024/01/25 01:03:58;;;;;;;19.00;8.15;;;9.10;99.90;;;;;;6206868;23;20665;-64
2024/01/25 01:06:25;;;;;;;17.50;8.32;;;9.10;99.90;;;;;;6207021;23;20055;-63
2024/01/25 01:08:51;;;;;;;16.40;9.05;;;9.00;99.90;;;;;;6207706;23;20058;-63
2024/01/25 01:11:17;;;;;;;18.55;8.20;;;9.10;99.90;;;;;;6207583;23;20001;-63
2024/01/25 01:13:42;;;;;;;23.83;8.97;;;9.10;99.90;;;;;;6207158;23;20011;-63
2024/01/25 01:16:09;;;;;;;15.23;8.40;;;9.10;99.90;;;;;;6207513;22;20445;-64
2024/01/25 01:18:34;;;;;;;17.63;8.23;;;9.10;99.90;;;;;;6206234;23;20020;-64
2024/01/25 01:21:00;;;;;;;14.77;7.27;;;9.10;99.90;;;;;;6206324;23;20004;-66
2024/01/25 01:23:25;;;;;;;16.27;8.77;;;9.10;99.90;;;;;;6206501;23;20438;-65
2024/01/25 01:25:51;;;;;;;16.30;7.77;;;9.10;99.90;;;;;;6256380;22;20009;-63
2024/01/25 01:28:17;;;;;;;20.13;7.88;;;9.10;99.90;;;;;;6206559;23;20009;-65
2024/01/25 01:30:43;;;;;;;23.17;8.80;;;9.10;99.90;;;;;;6206057;23;20019;-64
2024/01/25 01:33:09;;;;;;;17.42;9.05;;;9.10;99.90;;;;;;6205449;23;20558;-64
2024/01/25 01:35:34;;;;;;;16.92;8.02;;;9.20;99.90;;;;;;6205513;23;20036;-66
2024/01/25 01:38:00;;;;;;;19.87;7.90;;;9.20;99.90;;;;;;6206781;23;20008;-63
2024/01/25 01:40:25;;;;;;;15.13;9.20;;;9.10;99.90;;;;;;6206259;23;20009;-64
2024/01/25 01:42:51;;;;;;;16.40;7.90;;;9.20;99.90;;;;;;6206351;23;20009;-66
2024/01/25 01:45:17;;;;;;;17.98;8.27;;;9.20;99.90;;;;;;6207400;23;20008;-63
2024/01/25 01:47:43;;;;;;;16.07;8.20;;;9.20;99.90;;;;;;6204493;23;20084;-63
2024/01/25 01:50:09;;;;;;;14.40;7.30;;;9.20;99.90;;;;;;6206438;23;20493;-63
2024/01/25 01:52:36;;;;;;;19.90;8.13;;;9.20;99.90;;;;;;6206146;23;20797;-63
2024/01/25 01:55:02;;;;;;;17.10;7.28;;;9.20;99.90;;;;;;6206859;23;20062;-66
2024/01/25 01:57:28;;;;;;;19.48;7.25;;;9.20;99.90;;;;;;6207164;23;20004;-64
2024/01/25 01:59:54;;;;;;;21.17;7.50;;;9.20;99.90;;;;;;6207267;23;20107;-63
2024/01/25 02:02:19;;;;;;;13.67;6.97;;;9.20;99.90;;;;;;6206712;23;20035;-68
2024/01/25 02:04:45;;;;;;;13.83;7.73;;;9.30;99.90;;;;;;6206222;23;20012;-63
2024/01/25 02:07:12;;;;;;;16.47;9.00;;;9.20;99.90;;;;;;6206556;23;20000;-63
2024/01/25 02:09:37;;;;;;;15.45;7.78;;;9.20;99.90;;;;;;6207251;23;20013;-63
2024/01/25 02:12:03;;;;;;;12.13;7.17;;;9.20;99.90;;;;;;6208401;23;20087;-64
2024/01/25 02:14:30;;;;;;;17.23;7.13;;;9.20;99.90;;;;;;6208958;23;20084;-64
2024/01/25 02:16:56;;;;;;;14.95;7.70;;;9.20;99.90;;;;;;6208688;23;20019;-63
2024/01/25 02:19:22;;;;;;;14.15;8.15;;;9.20;99.90;;;;;;6208687;23;20339;-65
2024/01/25 02:21:49;;;;;;;15.77;8.83;;;9.20;99.90;;;;;;6209321;23;20008;-63
2024/01/25 02:24:15;;;;;;;21.42;10.75;;;9.20;99.90;;;;;;6208892;23;20056;-63
2024/01/25 02:26:40;;;;;;;31.00;11.27;;;9.20;99.90;;;;;;6208760;23;20005;-63
2024/01/25 02:29:08;;;;;;;22.80;10.97;;;9.20;99.90;;;;;;6209112;23;20046;-64
2024/01/25 02:31:33;;;;;;;25.85;11.18;;;9.10;99.90;;;;;;6209167;23;20075;-64
2024/01/25 02:34:00;;;;;;;;;;;9.10;99.90;;;;;;6210350;23;20028;-66
2024/01/25 02:36:25;;;;;;;25.77;10.60;;;9.20;99.90;;;;;;6208761;23;19927;-64
2024/01/25 02:38:51;;;;;;;20.10;10.47;;;9.20;99.90;;;;;;6209157;23;20005;-64
2024/01/25 02:41:16;;;;;;;25.97;11.93;;;9.20;99.90;;;;;;6208606;23;20020;-64
2024/01/25 02:43:42;;;;;;;20.77;9.37;;;9.10;99.90;;;;;;6208929;23;20023;-63
2024/01/25 02:46:08;;;;;;;16.93;8.73;;;9.10;99.90;;;;;;6257670;22;20009;-66
2024/01/25 02:48:34;;;;;;;15.27;7.93;;;9.20;99.90;;;;;;6208634;23;20469;-64
2024/01/25 02:51:00;;;;;;;17.90;8.45;;;9.10;99.90;;;;;;6208809;23;20001;-64
2024/01/25 02:53:26;;;;;;;18.42;8.85;;;9.20;99.90;;;;;;6208376;23;20367;-64
2024/01/25 02:55:52;;;;;;;21.63;9.73;;;9.20;99.90;;;;;;6208727;23;20091;-64
2024/01/25 02:58:17;;;;;;;20.83;10.00;;;9.20;99.90;;;;;;6209417;23;20000;-64
2024/01/25 03:00:43;;;;;;;19.77;9.73;;;9.20;99.90;;;;;;6208402;23;20294;-64
2024/01/25 03:03:08;;;;;;;19.80;9.17;;;9.20;99.90;;;;;;6208345;23;20025;-63
2024/01/25 03:05:34;;;;;;;15.57;8.53;;;9.20;99.90;;;;;;6208288;23;20075;-64
2024/01/25 03:08:00;;;;;;;18.42;9.70;;;9.30;99.90;;;;;;6208333;23;20009;-64
2024/01/25 03:10:26;;;;;;;23.27;9.30;;;9.30;99.90;;;;;;6206963;23;20009;-67
2024/01/25 03:12:51;;;;;;;20.47;10.40;;;9.20;99.90;;;;;;6208595;23;20005;-66
2024/01/25 03:15:17;;;;;;;30.17;11.20;;;9.20;99.90;;;;;;6231889;23;20008;-64
2024/01/25 03:17:43;;;;;;;22.67;11.83;;;9.20;99.90;;;;;;6207678;23;20009;-64
2024/01/25 03:20:09;;;;;;;21.15;10.05;;;9.20;99.90;;;;;;6207652;23;20012;-63
2024/01/25 03:22:35;;;;;;;18.23;9.88;;;9.20;99.90;;;;;;6207442;23;20008;-64
2024/01/25 03:25:01;;;;;;;20.23;9.32;;;9.20;99.90;;;;;;6208082;23;20032;-64
2024/01/25 03:27:26;;;;;;;25.37;9.90;;;9.20;99.90;;;;;;6208022;23;20008;-64
2024/01/25 03:29:52;;;;;;;21.70;11.40;;;9.20;99.90;;;;;;6207826;23;20021;-64
2024/01/25 03:32:18;;;;;;;21.07;11.00;;;9.20;99.90;;;;;;6208072;23;20013;-65
2024/01/25 03:34:44;;;;;;;21.05;11.02;;;9.20;99.90;;;;;;6206775;23;20024;-68
2024/01/25 03:37:09;;;;;;;15.87;9.00;;;9.20;99.90;;;;;;6208063;23;20005;-64
2024/01/25 03:39:35;;;;;;;16.70;9.00;;;9.20;99.90;;;;;;6207621;23;20009;-65
2024/01/25 03:42:00;;;;;;;23.50;9.10;;;9.20;99.90;;;;;;6207766;23;20071;-66
2024/01/25 03:44:26;;;;;;;17.07;9.93;;;9.20;99.90;;;;;;6207203;23;20020;-66
2024/01/25 03:46:52;;;;;;;21.60;9.57;;;9.20;99.90;;;;;;6209247;23;20009;-63
2024/01/25 03:49:18;;;;;;;20.08;10.27;;;9.20;99.90;;;;;;6257653;22;20005;-64
2024/01/25 03:51:44;;;;;;;18.88;9.60;;;9.20;99.90;;;;;;6207682;23;20047;-63
2024/01/25 03:54:10;;;;;;;19.87;11.13;;;9.20;99.90;;;;;;6207744;23;20004;-65
2024/01/25 03:56:35;;;;;;;24.73;11.40;;;9.20;99.90;;;;;;6256311;22;20059;-64
2024/01/25 03:59:01;;;;;;;27.00;10.70;;;9.20;99.90;;;;;;6207303;23;20298;-67
2024/01/25 04:01:26;;;;;;;20.73;11.00;;;9.20;99.90;;;;;;6205985;23;20039;-63
2024/01/25 04:03:52;;;;;;;24.00;10.67;;;9.20;99.90;;;;;;6207676;23;20012;-63
2024/01/25 04:06:18;;;;;;;22.33;11.37;;;9.20;99.90;;;;;;6206299;23;20051;-63
2024/01/25 04:08:43;;;;;;;22.40;12.20;;;9.20;99.90;;;;;;6208254;23;20004;-64
2024/01/25 04:11:09;;;;;;;28.17;14.00;;;9.20;99.90;;;;;;6207098;23;20012;-64
2024/01/25 04:13:35;;;;;;;32.93;14.73;;;9.20;99.90;;;;;;6207368;23;20079;-65
2024/01/25 04:16:01;;;;;;;28.20;12.60;;;9.20;99.90;;;;;;6207569;23;20011;-63
2024/01/25 04:18:26;;;;;;;28.37;13.33;;;9.20;99.90;;;;;;6206814;23;20401;-64
2024/01/25 04:20:52;;;;;;;31.27;13.47;;;9.20;99.90;;;;;;6207345;23;20003;-63
2024/01/25 04:23:18;;;;;;;27.97;12.97;;;9.20;99.90;;;;;;6207118;23;20012;-63
2024/01/25 04:25:44;;;;;;;34.00;14.05;;;9.20;99.90;;;;;;6206645;23;20445;-63
2024/01/25 04:28:09;;;;;;;24.40;12.38;;;9.10;99.90;;;;;;6207671;23;20333;-63
2024/01/25 04:30:35;;;;;;;25.37;11.80;;;9.20;99.90;;;;;;6207348;23;20047;-64
2024/01/25 04:33:01;;;;;;;30.40;12.93;;;9.10;99.90;;;;;;6207231;23;20031;-64
2024/01/25 04:35:27;;;;;;;28.00;12.68;;;9.10;99.90;;;;;;6207135;23;20050;-63
2024/01/25 04:37:52;;;;;;;32.10;13.27;;;9.10;99.90;;;;;;6207636;23;20876;-66
2024/01/25 04:40:19;;;;;;;22.37;11.93;;;9.20;99.90;;;;;;6207735;23;20515;-66
2024/01/25 04:42:44;;;;;;;25.20;12.23;;;9.10;99.90;;;;;;6206524;23;20015;-65
2024/01/25 04:45:10;;;;;;;30.80;13.63;;;9.20;99.90;;;;;;6206989;23;20345;-64
2024/01/25 04:47:38;;;;;;;29.27;13.03;;;9.20;99.90;;;;;;6207258;23;20011;-66
2024/01/25 04:50:04;;;;;;;26.10;11.70;;;9.20;99.90;;;;;;6207257;23;20246;-64
2024/01/25 04:52:30;;;;;;;24.75;11.98;;;9.10;99.90;;;;;;6207027;23;20005;-64
2024/01/25 04:54:55;;;;;;;21.93;12.50;;;9.10;99.90;;;;;;6206806;23;20496;-64
2024/01/25 04:57:21;;;;;;;23.87;12.07;;;9.20;99.90;;;;;;6207457;23;20062;-63
2024/01/25 04:59:46;;;;;;;24.47;11.23;;;9.20;99.90;;;;;;6206853;23;20623;-64
2024/01/25 05:02:12;;;;;;;23.00;11.97;;;9.10;99.90;;;;;;6207091;23;20141;-66
2024/01/25 05:04:37;;;;;;;35.67;14.00;;;9.20;99.90;;;;;;6206861;23;20015;-63
2024/01/25 05:07:03;;;;;;;28.90;13.50;;;9.10;99.90;;;;;;6207077;23;20058;-65
2024/01/25 05:09:29;;;;;;;28.33;13.10;;;9.20;99.90;;;;;;6205518;23;20080;-67
2024/01/25 05:11:58;;;;;;;26.23;14.43;;;9.20;99.90;;;;;;6207443;23;20043;-63
2024/01/25 05:14:24;;;;;;;27.90;14.68;;;9.20;99.90;;;;;;6207161;23;20005;-65
2024/01/25 05:16:50;;;;;;;40.65;16.02;;;9.20;99.90;;;;;;6207092;23;20456;-64
2024/01/25 05:19:15;;;;;;;36.50;15.27;;;9.20;99.90;;;;;;6207054;23;20008;-63
2024/01/25 05:21:41;;;;;;;41.07;18.70;;;9.20;99.90;;;;;;6206268;23;20797;-65
2024/01/25 05:24:07;;;;;;;72.73;31.83;;;9.20;99.90;;;;;;6206834;23;20091;-64
2024/01/25 05:26:33;;;;;;;105.00;47.90;;;9.20;99.90;;;;;;6207011;23;20011;-63
2024/01/25 05:28:58;;;;;;;103.67;48.33;;;9.20;99.90;;;;;;6207152;23;20008;-63
2024/01/25 05:31:24;;;;;;;84.23;42.07;;;9.20;99.90;;;;;;6207122;23;20063;-63
2024/01/25 05:33:50;;;;;;;71.07;37.53;;;9.20;99.90;;;;;;6207138;23;20005;-65
2024/01/25 05:36:15;;;;;;;65.40;33.73;;;9.30;99.90;;;;;;6256041;22;20021;-64
2024/01/25 05:38:41;;;;;;;57.10;27.17;;;9.30;99.90;;;;;;6206825;23;20106;-64
2024/01/25 05:41:06;;;;;;;41.93;20.87;;;9.20;99.90;;;;;;6207078;23;20032;-64
2024/01/25 05:43:33;;;;;;;37.57;17.87;;;9.30;99.90;;;;;;6207622;23;20499;-63
2024/01/25 05:45:58;;;;;;;38.35;19.73;;;9.30;99.90;;;;;;6207026;23;20004;-64
2024/01/25 05:48:24;;;;;;;40.07;20.37;;;9.30;99.90;;;;;;6209092;23;20036;-66
2024/01/25 05:50:49;;;;;;;40.23;17.60;;;9.30;99.90;;;;;;6209054;23;20062;-64
2024/01/25 05:53:18;;;;;;;30.37;16.30;;;9.30;99.90;;;;;;6208557;23;20001;-64
2024/01/25 05:55:44;;;;;;;26.45;15.65;;;9.30;99.90;;;;;;6208594;23;20060;-65
2024/01/25 05:58:10;;;;;;;29.53;15.37;;;9.30;99.90;;;;;;6206506;23;20004;-64
2024/01/25 06:00:35;;;;;;;26.93;13.43;;;9.30;99.90;;;;;;6208719;23;20546;-63
2024/01/25 06:03:01;;;;;;;31.00;15.10;;;9.40;99.90;;;;;;6208515;23;20004;-63
2024/01/25 06:05:27;;;;;;;27.57;14.67;;;9.40;99.90;;;;;;6208695;23;20013;-64
2024/01/25 06:07:52;;;;;;;24.45;13.75;;;9.30;99.90;;;;;;6208110;23;20000;-64
2024/01/25 06:10:18;;;;;;;35.87;16.03;;;9.30;99.90;;;;;;6207023;23;20082;-64
2024/01/25 06:12:43;;;;;;;30.77;17.07;;;9.30;99.90;;;;;;6206029;23;20011;-65
2024/01/25 06:15:10;;;;;;;32.92;16.83;;;9.30;99.90;;;;;;6206084;23;20000;-64
2024/01/25 06:17:35;;;;;;;28.20;16.48;;;9.30;99.90;;;;;;6206235;23;20012;-64
2024/01/25 06:20:02;;;;;;;40.45;18.50;;;9.40;99.90;;;;;;6207008;23;20373;-63
2024/01/25 06:22:28;;;;;;;30.95;16.20;;;9.40;99.90;;;;;;6206880;23;20016;-63
2024/01/25 06:24:53;;;;;;;33.23;17.10;;;9.40;99.90;;;;;;6207090;23;20012;-64
2024/01/25 06:27:19;;;;;;;31.40;15.02;;;9.40;99.90;;;;;;6207680;23;20024;-64
2024/01/25 06:29:45;;;;;;;26.95;14.93;;;9.50;99.90;;;;;;6206028;23;20013;-63
2024/01/25 06:32:11;;;;;;;38.03;14.30;;;9.40;99.90;;;;;;6207064;23;20405;-64
2024/01/25 06:34:36;;;;;;;32.17;15.73;;;9.40;99.90;;;;;;6206340;23;20489;-64
2024/01/25 06:37:02;;;;;;;33.47;16.33;;;9.50;99.90;;;;;;6207433;23;20040;-63
2024/01/25 06:39:28;;;;;;;37.90;17.97;;;9.40;99.90;;;;;;6205408;23;20011;-64
2024/01/25 06:41:54;;;;;;;32.35;16.98;;;9.50;99.90;;;;;;6206610;23;20943;-64
2024/01/25 06:44:19;;;;;;;30.17;14.57;;;9.40;99.90;;;;;;6207783;23;20019;-66
2024/01/25 06:46:45;;;;;;;36.20;15.13;;;9.40;99.90;;;;;;6206492;23;20004;-66
2024/01/25 06:49:11;;;;;;;27.20;15.45;;;9.50;99.90;;;;;;6207166;23;20009;-64
2024/01/25 06:51:37;;;;;;;35.37;15.30;;;9.50;99.90;;;;;;6206591;23;20076;-64
2024/01/25 06:54:02;;;;;;;36.97;16.83;;;9.50;99.90;;;;;;6207036;23;20082;-69
2024/01/25 06:56:28;;;;;;;29.45;16.67;;;9.40;99.90;;;;;;6206973;23;20005;-74
2024/01/25 06:58:54;;;;;;;30.52;14.07;;;9.50;99.90;;;;;;6206687;23;20679;-68
2024/01/25 07:01:24;;;;;;;25.20;11.95;;;9.50;99.90;;;;;;6206596;23;20001;-72
2024/01/25 07:03:52;;;;;;;24.23;11.18;;;9.50;99.90;;;;;;6207403;23;20007;-74
2024/01/25 07:06:18;;;;;;;24.67;11.35;;;9.50;99.90;;;;;;6206522;23;20277;-66
2024/01/25 07:08:45;;;;;;;28.30;10.68;;;9.40;99.90;;;;;;6207186;23;20004;-74
2024/01/25 07:11:10;;;;;;;20.83;10.80;;;9.40;99.90;;;;;;6206519;23;20015;-65
2024/01/25 07:13:36;;;;;;;29.57;11.37;;;9.40;99.90;;;;;;6205920;23;20341;-64
2024/01/25 07:16:02;;;;;;;24.17;10.47;;;9.50;99.90;;;;;;6206844;23;20240;-64
2024/01/25 07:18:27;;;;;;;22.58;11.25;;;9.50;99.90;;;;;;6204762;23;20015;-64
2024/01/25 07:20:53;;;;;;;27.20;11.37;;;9.50;99.90;;;;;;6206648;23;20009;-64
2024/01/25 07:23:22;;;;;;;29.03;12.23;;;9.50;99.90;;;;;;6207329;23;20005;-64
2024/01/25 07:25:47;;;;;;;30.25;12.35;;;9.50;99.90;;;;;;6206659;23;20005;-68
2024/01/25 07:28:13;;;;;;;30.00;12.17;;;9.60;99.90;;;;;;6205206;23;20009;-65
2024/01/25 07:30:39;;;;;;;23.55;12.02;;;9.60;99.90;;;;;;6206738;23;20453;-67
2024/01/25 07:33:05;;;;;;;25.38;12.07;;;9.60;99.90;;;;;;6207753;23;20012;-64
2024/01/25 07:35:31;;;;;;;29.60;14.00;;;9.70;99.90;;;;;;6203229;23;20005;-68
2024/01/25 07:37:57;;;;;;;20.52;13.43;;;9.70;99.90;;;;;;6205618;23;20008;-64
2024/01/25 07:40:22;;;;;;;35.40;16.20;;;9.80;99.90;;;;;;6207011;23;20008;-67
2024/01/25 07:42:48;;;;;;;31.23;14.97;;;9.90;99.90;;;;;;6207092;23;20035;-67
2024/01/25 07:45:14;;;;;;;26.47;15.67;;;10.00;99.90;;;;;;6207310;23;20012;-64
2024/01/25 07:47:43;;;;;;;35.37;15.90;;;10.00;99.90;;;;;;6206651;23;20000;-66
2024/01/25 07:50:10;;;;;;;28.70;16.63;;;10.00;99.90;;;;;;6204927;23;20457;-69
2024/01/25 07:52:35;;;;;;;32.92;20.13;;;10.10;99.90;;;;;;6204257;23;20087;-65
2024/01/25 07:55:01;;;;;;;35.17;17.80;;;10.10;99.90;;;;;;6205190;23;20382;-65
2024/01/25 07:57:26;;;;;;;35.93;15.93;;;10.20;99.90;;;;;;6206171;23;20058;-69
2024/01/25 07:59:52;;;;;;;22.53;13.53;;;10.20;99.90;;;;;;6206568;23;20035;-65
2024/01/25 08:02:19;;;;;;;24.00;11.40;;;10.30;99.90;;;;;;6207329;23;20011;-65
2024/01/25 08:04:44;;;;;;;;;;;10.30;99.90;;;;;;6205403;23;20079;-64
2024/01/25 08:07:10;;;;;;;22.67;9.82;;;10.30;99.90;;;;;;6206090;23;19908;-65
2024/01/25 08:09:36;;;;;;;30.73;10.60;;;10.40;99.90;;;;;;6205993;23;20015;-64
2024/01/25 08:12:02;;;;;;;23.33;11.23;;;10.30;99.90;;;;;;6205879;23;20434;-65
2024/01/25 08:14:27;;;;;;;20.73;10.83;;;10.30;99.90;;;;;;6205667;23;20035;-65
2024/01/25 08:16:55;;;;;;;30.10;10.90;;;10.30;99.90;;;;;;6206626;23;20259;-64
2024/01/25 08:19:20;;;;;;;17.10;10.77;;;10.40;99.90;;;;;;6206425;23;20035;-66
2024/01/25 08:21:46;;;;;;;23.90;12.57;;;10.50;99.90;;;;;;6205771;23;20342;-65
2024/01/25 08:24:12;;;;;;;19.58;12.23;;;10.50;99.90;;;;;;6206168;23;20407;-66
2024/01/25 08:26:38;;;;;;;22.98;11.65;;;10.60;99.90;;;;;;6205820;23;20000;-66
2024/01/25 08:29:04;;;;;;;18.33;10.88;;;10.70;99.90;;;;;;6206433;23;20008;-65
2024/01/25 08:31:30;;;;;;;26.17;10.37;;;10.70;99.90;;;;;;6206337;23;20043;-64
2024/01/25 08:33:55;;;;;;;21.42;11.05;;;10.70;99.90;;;;;;6206013;23;20004;-65
2024/01/25 08:36:22;;;;;;;18.93;10.67;;;10.80;99.90;;;;;;6206539;23;20031;-67
2024/01/25 08:38:48;;;;;;;23.67;13.00;;;10.80;99.90;;;;;;6204611;23;20047;-66
2024/01/25 08:41:15;;;;;;;22.30;14.57;;;10.90;99.90;;;;;;6206137;23;19997;-65
2024/01/25 08:43:41;;;;;;;25.85;14.52;;;11.00;99.90;;;;;;6206052;23;20006;-64
2024/01/25 08:46:06;;;;;;;25.53;13.27;;;11.10;99.90;;;;;;6204296;23;20369;-67
2024/01/25 08:48:32;;;;;;;26.63;13.10;;;11.20;99.90;;;;;;6206177;23;20001;-75
2024/01/25 08:50:58;;;;;;;28.97;14.37;;;11.20;99.90;;;;;;6206658;23;20043;-66
2024/01/25 08:53:27;;;;;;;23.07;12.30;;;11.30;99.90;;;;;;6206411;23;20005;-65
2024/01/25 08:55:53;;;;;;;26.00;13.85;;;11.40;99.90;;;;;;6205761;23;20067;-68
2024/01/25 08:58:19;;;;;;;29.27;13.27;;;11.50;99.90;;;;;;6206458;23;20075;-65
2024/01/25 09:00:45;;;;;;;31.35;13.30;;;11.70;99.90;;;;;;6205669;23;20005;-64
2024/01/25 09:03:11;;;;;;;28.53;13.63;;;11.80;99.90;;;;;;6206501;23;20011;-66
2024/01/25 09:05:40;;;;;;;21.47;12.27;;;12.00;99.90;;;;;;6205401;23;20044;-66
2024/01/25 09:08:06;;;;;;;24.33;12.23;;;12.10;99.90;;;;;;6205271;23;20345;-67
2024/01/25 09:10:32;;;;;;;20.33;10.88;;;12.30;99.90;;;;;;6204952;23;20503;-67
2024/01/25 09:12:57;;;;;;;24.37;10.47;;;12.60;99.90;;;;;;6204701;23;20005;-67
2024/01/25 09:15:23;;;;;;;27.67;10.70;;;12.80;99.90;;;;;;6205661;23;20008;-68
2024/01/25 09:17:48;;;;;;;14.77;7.90;;;12.90;99.90;;;;;;6204955;23;20008;-70
2024/01/25 09:20:14;;;;;;;21.00;9.27;;;13.00;99.90;;;;;;6207971;23;20012;-69
2024/01/25 09:22:39;;;;;;;19.63;11.13;;;12.90;99.90;;;;;;6207218;23;20359;-69
2024/01/25 09:25:06;;;;;;;19.50;10.80;;;12.80;99.90;;;;;;6207142;23;20016;-67
2024/01/25 09:27:31;;;;;;;18.55;9.95;;;12.80;99.90;;;;;;6207167;23;20005;-68
2024/01/25 09:29:57;;;;;;;19.67;9.30;;;12.70;99.90;;;;;;6202779;22;20129;-67
2024/01/25 09:32:22;;;;;;;15.67;9.13;;;12.80;99.90;;;;;;6207112;23;20008;-68
2024/01/25 09:34:48;;;;;;;23.57;10.20;;;12.90;99.90;;;;;;6207154;23;20386;-69
2024/01/25 09:37:14;;;;;;;16.37;9.33;;;13.20;99.90;;;;;;6205608;23;20019;-69
2024/01/25 09:39:40;;;;;;;;;;;13.40;99.90;;;;;;6206106;23;20062;-69
2024/01/25 09:42:06;;;;;;;24.50;10.13;;;13.30;99.90;;;;;;6205287;23;19958;-66
2024/01/25 09:44:32;;;;;;;;;;;13.30;99.90;;;;;;6205162;23;20024;-67
2024/01/25 09:46:58;;;;;;;22.65;8.55;;;13.20;99.90;;;;;;6205463;23;19903;-66
2024/01/25 09:49:24;;;;;;;20.60;8.30;;;13.30;99.90;;;;;;6205862;23;20004;-69
2024/01/25 09:51:51;;;;;;;18.40;7.97;;;13.40;99.90;;;;;;6206834;23;20001;-68
2024/01/25 09:54:16;;;;;;;16.08;7.68;;;13.60;99.90;;;;;;6207719;23;20040;-68
2024/01/25 09:56:42;;;;;;;19.90;7.82;;;13.80;99.90;;;;;;6207228;23;20016;-68
2024/01/25 09:59:09;;;;;;;15.75;7.28;;;13.70;99.90;;;;;;6208429;23;20009;-66
2024/01/25 10:01:34;;;;;;;14.43;7.53;;;13.70;99.90;;;;;;6207215;23;20040;-66
2024/01/25 10:04:00;;;;;;;18.37;6.80;;;13.80;99.90;;;;;;6207073;23;20377;-66
2024/01/25 10:06:26;;;;;;;23.23;8.73;;;13.90;99.90;;;;;;6207978;23;20243;-67
2024/01/25 10:08:52;;;;;;;18.23;7.90;;;13.90;99.90;;;;;;6208206;23;20080;-66
2024/01/25 10:11:19;;;;;;;21.30;7.22;;;14.00;99.90;;;;;;6207849;23;20000;-68
2024/01/25 10:13:46;;;;;;;18.52;7.65;;;13.90;99.90;;;;;;6207034;23;20001;-66
2024/01/25 10:16:15;;;;;;;16.08;7.03;;;13.90;99.90;;;;;;6207502;23;20083;-67
2024/01/25 10:18:43;;;;;;;17.17;6.30;;;13.90;99.90;;;;;;6205527;23;20008;-65
2024/01/25 10:21:12;;;;;;;9.90;5.75;;;13.90;99.90;;;;;;6207191;23;20432;-65
2024/01/25 10:23:43;;;;;;;12.65;4.88;;;14.00;99.90;;;;;;6205660;23;20012;-66
2024/01/25 10:26:09;;;;;;;9.27;5.03;;;14.10;99.90;;;;;;6206857;23;20008;-66
2024/01/25 10:28:35;;;;;;;12.93;5.57;;;14.20;99.90;;;;;;6205139;23;20382;-65
2024/01/25 10:31:04;;;;;;;13.87;6.47;;;14.20;99.90;;;;;;6205008;23;20047;-66
2024/01/25 10:33:30;;;;;;;11.27;6.43;;;14.20;99.90;;;;;;6207183;23;20341;-66
2024/01/25 10:36:01;;;;;;;13.88;6.53;;;14.20;99.90;;;;;;6207893;23;20011;-66
2024/01/25 10:38:34;;;;;;;18.10;6.30;;;14.30;99.90;;;;;;6206433;23;20012;-66
2024/01/25 10:41:03;;;;;;;11.85;6.03;;;14.40;99.90;;;;;;6208001;23;20004;-66
2024/01/25 10:43:30;;;;;;;10.68;5.07;;;14.50;99.90;;;;;;6206641;23;20011;-66
2024/01/25 10:45:58;;;;;;;9.57;5.10;;;14.50;99.90;;;;;;6207467;23;20076;-66
2024/01/25 10:48:25;;;;;;;11.05;6.32;;;14.50;99.90;;;;;;6207694;23;20388;-65
2024/01/25 10:50:52;;;;;;;16.05;5.90;;;14.60;99.90;;;;;;6206231;23;20015;-65
2024/01/25 10:53:19;;;;;;;10.10;5.80;;;14.60;99.90;;;;;;6206850;23;20028;-65
2024/01/25 10:55:45;;;;;;;10.68;4.97;;;14.80;99.90;;;;;;6207443;23;20001;-65
2024/01/25 10:58:15;;;;;;;9.23;5.22;;;14.70;99.90;;;;;;6207206;23;20019;-65
2024/01/25 11:00:41;;;;;;;15.48;4.78;;;14.60;99.90;;;;;;6207379;23;20441;-66
2024/01/25 11:03:06;;;;;;;11.93;5.53;;;14.60;99.90;;;;;;6207490;23;20008;-65
2024/01/25 11:05:32;;;;;;;9.27;5.57;;;14.70;99.90;;;;;;6207717;23;20020;-67
2024/01/25 11:07:58;;;;;;;13.70;5.80;;;14.60;99.90;;;;;;6207530;23;20008;-65
2024/01/25 11:10:27;;;;;;;8.03;4.47;;;14.70;99.90;;;;;;6208622;23;20011;-65
2024/01/25 11:13:00;;;;;;;7.72;4.00;;;14.50;99.90;;;;;;6207736;23;20259;-65
2024/01/25 11:15:36;;;;;;;15.27;4.95;;;14.40;99.90;;;;;;6207632;23;20015;-66
2024/01/25 11:18:06;;;;;;;8.85;4.88;;;14.20;99.90;;;;;;6205970;23;20011;-65
2024/01/25 11:20:33;;;;;;;11.25;4.30;;;14.10;99.90;;;;;;6207812;23;20087;-65
2024/01/25 11:23:06;;;;;;;12.18;4.72;;;14.10;99.90;;;;;;6208463;23;20444;-66
2024/01/25 11:25:34;;;;;;;14.57;5.35;;;14.20;99.90;;;;;;6207856;23;20051;-65
2024/01/25 11:28:01;;;;;;;10.95;4.22;;;14.20;99.90;;;;;;6208115;23;20004;-68
2024/01/25 11:30:29;;;;;;;10.70;4.40;;;14.30;99.90;;;;;;6207691;23;20013;-65
2024/01/25 11:32:55;;;;;;;10.00;4.15;;;14.30;99.90;;;;;;6207793;23;20028;-65
2024/01/25 11:35:21;;;;;;;13.95;5.30;;;14.50;99.90;;;;;;6206798;23;20024;-65
2024/01/25 11:37:48;;;;;;;13.48;3.10;;;14.60;99.90;;;;;;6206994;23;20005;-65
2024/01/25 11:40:15;;;;;;;7.13;3.15;;;14.70;99.90;;;;;;6205980;23;20441;-65
2024/01/25 11:42:47;;;;;;;9.27;3.72;;;14.80;99.90;;;;;;6206704;23;20008;-65
2024/01/25 11:45:14;;;;;;;9.38;3.70;;;14.70;99.90;;;;;;6207180;23;20421;-65
2024/01/25 11:47:41;;;;;;;4.18;2.20;;;14.70;99.90;;;;;;6206332;23;20009;-65
2024/01/25 11:50:08;;;;;;;6.15;2.95;;;14.60;99.90;;;;;;6206994;23;20009;-65
2024/01/25 11:52:34;;;;;;;7.85;2.30;;;14.40;99.90;;;;;;6205715;23;20701;-65
2024/01/25 11:55:04;;;;;;;3.45;1.90;;;14.20;99.90;;;;;;6206926;23;20004;-64
2024/01/25 11:57:31;;;;;;;3.30;1.90;;;14.20;99.90;;;;;;6204745;23;20130;-64
2024/01/25 11:59:58;;;;;;;4.93;2.25;;;14.00;99.90;;;;;;6206767;23;20496;-65
2024/01/25 12:02:24;;;;;;;7.63;2.45;;;13.90;99.90;;;;;;6206175;23;20005;-64
2024/01/25 12:04:50;;;;;;;10.05;2.60;;;13.80;99.90;;;;;;6206438;23;20012;-65
2024/01/25 12:07:15;;;;;;;6.93;2.03;;;13.80;99.90;;;;;;6206330;23;20004;-64
2024/01/25 12:09:41;;;;;;;6.40;1.40;;;13.70;99.90;;;;;;6207455;23;20215;-65
2024/01/25 12:12:09;;;;;;;12.07;1.77;;;13.70;99.90;;;;;;6207230;23;20004;-64
2024/01/25 12:14:35;;;;;;;5.20;1.77;;;13.60;99.90;;;;;;6206813;23;20004;-66
2024/01/25 12:17:01;;;;;;;6.80;2.30;;;13.50;99.90;;;;;;6206394;23;20011;-66
2024/01/25 12:19:28;;;;;;;;;;;13.50;99.90;;;;;;6204848;23;20243;-64
2024/01/25 12:21:55;;;;;;;11.93;2.25;;;13.50;99.90;;;;;;6203543;23;19907;-64
2024/01/25 12:24:21;;;;;;;8.68;2.28;;;13.70;99.90;;;;;;6203031;23;20075;-66
2024/01/25 12:26:47;;;;;;;5.83;2.37;;;13.80;99.90;;;;;;6203095;23;20012;-64
2024/01/25 12:29:13;;;;;;;9.27;2.42;;;13.90;99.90;;;;;;6202310;23;20449;-65
2024/01/25 12:31:39;;;;;;;4.05;2.08;;;14.00;99.90;;;;;;6204048;23;20499;-64
2024/01/25 12:34:14;;;;;;;4.20;1.70;;;14.10;99.90;;;;;;6204955;23;20005;-65